臺北飛航情報區 - 掃描席(區管/近場)

METAR RCTP 250000Z 03016KT 350V050 8000 -RA FEW006 BKN015 BKN030 22/20 Q1018 NOSIG RMK A3008(E)=

站台狀態:Online
最後更新:2021-10-25 08:00:02